createdAt,value
2018-08-03T00:01:13.581Z,62.34
2018-08-03T00:03:39.593Z,62.33
2018-08-03T00:06:05.599Z,62.32
2018-08-03T00:08:31.614Z,62.33
2018-08-03T00:10:57.656Z,62.30
2018-08-03T00:13:23.664Z,62.29
2018-08-03T00:15:49.685Z,62.31
2018-08-03T00:18:15.692Z,62.29
2018-08-03T00:20:41.700Z,62.31
2018-08-03T00:23:07.707Z,62.30
2018-08-03T00:25:33.715Z,62.28
2018-08-03T00:27:59.726Z,62.25
2018-08-03T00:30:25.746Z,62.25
2018-08-03T00:32:51.754Z,62.25
2018-08-03T00:35:17.768Z,62.25
2018-08-03T00:37:43.782Z,62.24
2018-08-03T00:40:09.800Z,62.22
2018-08-03T00:42:35.814Z,62.21
2018-08-03T00:45:01.825Z,62.22
2018-08-03T00:47:27.831Z,62.18
2018-08-03T00:49:53.846Z,62.19
2018-08-03T00:52:19.944Z,62.16
2018-08-03T00:54:45.968Z,62.18
2018-08-03T00:57:12.004Z,62.15
2018-08-03T00:59:38.014Z,62.16
2018-08-03T01:02:04.028Z,62.14
2018-08-03T01:04:30.070Z,62.12
2018-08-03T01:06:56.078Z,62.10
2018-08-03T01:09:22.083Z,62.09
2018-08-03T01:11:48.103Z,62.08
2018-08-03T01:14:14.125Z,62.08
2018-08-03T01:16:40.132Z,62.05
2018-08-03T01:19:06.142Z,62.04
2018-08-03T01:21:32.160Z,62.02
2018-08-03T01:23:58.182Z,62.03
2018-08-03T01:26:24.193Z,62.02
2018-08-03T01:28:50.210Z,62.02
2018-08-03T01:31:16.245Z,62.07
2018-08-03T01:33:42.254Z,62.06
2018-08-03T01:36:08.302Z,62.03
2018-08-03T01:38:34.303Z,62.04
2018-08-03T01:41:00.305Z,62.02
2018-08-03T01:43:26.319Z,62.02
2018-08-03T01:45:52.330Z,61.99
2018-08-03T01:48:18.334Z,61.99
2018-08-03T01:50:44.343Z,61.98
2018-08-03T01:53:10.354Z,61.97
2018-08-03T01:55:36.362Z,61.95
2018-08-03T01:58:02.380Z,61.96
2018-08-03T02:00:28.436Z,61.97
2018-08-03T02:02:54.454Z,61.95
2018-08-03T02:05:20.466Z,61.93
2018-08-03T02:07:46.479Z,61.92
2018-08-03T02:10:12.499Z,61.91
2018-08-03T02:12:38.507Z,61.90
2018-08-03T02:15:04.522Z,61.89
2018-08-03T02:17:30.534Z,61.90
2018-08-03T02:19:56.553Z,61.87
2018-08-03T02:22:22.567Z,61.86
2018-08-03T02:24:48.575Z,61.85
2018-08-03T02:27:14.637Z,61.84
2018-08-03T02:29:40.613Z,61.84
2018-08-03T02:32:06.629Z,61.83
2018-08-03T02:34:32.640Z,61.84
2018-08-03T02:36:58.658Z,61.83
2018-08-03T02:39:24.669Z,61.83
2018-08-03T02:41:50.676Z,61.80
2018-08-03T02:44:16.694Z,61.79
2018-08-03T02:46:42.714Z,61.77
2018-08-03T02:49:08.730Z,61.77
2018-08-03T02:51:34.753Z,61.76
2018-08-03T02:54:00.779Z,61.75
2018-08-03T02:56:26.784Z,61.75
2018-08-03T02:58:52.794Z,61.72
2018-08-03T03:01:18.843Z,61.71
2018-08-03T03:03:44.850Z,61.73
2018-08-03T03:06:10.854Z,61.72
2018-08-03T03:08:36.888Z,61.71
2018-08-03T03:11:02.900Z,61.70
2018-08-03T03:13:28.910Z,61.69
2018-08-03T03:15:54.925Z,61.69
2018-08-03T03:18:20.937Z,61.70
2018-08-03T03:20:46.940Z,61.66
2018-08-03T03:23:12.952Z,61.67
2018-08-03T03:25:38.956Z,61.66
2018-08-03T03:28:04.965Z,61.63
2018-08-03T03:30:30.999Z,61.63
2018-08-03T03:32:57.033Z,61.63
2018-08-03T03:35:23.044Z,61.62
2018-08-03T03:37:49.056Z,61.62
2018-08-03T03:40:15.073Z,61.59
2018-08-03T03:42:41.092Z,61.58
2018-08-03T03:45:07.103Z,61.54
2018-08-03T03:47:33.119Z,61.55
2018-08-03T03:49:59.135Z,61.54
2018-08-03T03:52:25.144Z,61.54
2018-08-03T03:54:51.157Z,61.53
2018-08-03T03:57:17.176Z,61.54
2018-08-03T03:59:43.180Z,61.54
2018-08-03T04:02:09.229Z,61.51
2018-08-03T04:04:35.204Z,61.54
2018-08-03T04:07:01.321Z,61.50
2018-08-03T04:09:27.329Z,61.54
2018-08-03T04:11:53.373Z,61.51
2018-08-03T04:14:19.399Z,61.53
2018-08-03T04:16:45.405Z,61.52
2018-08-03T04:19:11.434Z,61.53
2018-08-03T04:21:37.444Z,61.63
2018-08-03T04:24:03.453Z,61.59
2018-08-03T04:26:29.461Z,61.63
2018-08-03T04:28:55.474Z,61.67
2018-08-03T04:31:21.484Z,61.70
2018-08-03T04:33:47.489Z,61.30
2018-08-03T04:36:13.607Z,61.04
2018-08-03T04:38:39.608Z,61.34
2018-08-03T04:41:05.654Z,62.48
2018-08-03T04:43:31.691Z,62.08
2018-08-03T04:45:57.701Z,62.17
2018-08-03T04:48:23.712Z,62.28
2018-08-03T04:50:49.724Z,62.31
2018-08-03T04:53:15.734Z,62.50
2018-08-03T04:55:41.748Z,62.52
2018-08-03T04:58:07.754Z,62.55
2018-08-03T05:00:33.772Z,62.44
2018-08-03T05:02:59.775Z,62.37
2018-08-03T05:05:25.786Z,62.68
2018-08-03T05:07:51.825Z,62.45
2018-08-03T05:10:17.830Z,62.63
2018-08-03T05:12:43.835Z,62.47
2018-08-03T05:15:09.855Z,62.59
2018-08-03T05:17:35.865Z,62.42
2018-08-03T05:20:01.880Z,62.31
2018-08-03T05:22:27.903Z,62.30
2018-08-03T05:24:53.916Z,62.28
2018-08-03T05:27:19.934Z,62.37
2018-08-03T05:29:45.949Z,62.25
2018-08-03T05:32:11.954Z,62.15
2018-08-03T05:34:37.965Z,62.11
2018-08-03T05:37:03.997Z,62.28
2018-08-03T05:39:30.009Z,62.03
2018-08-03T05:41:56.020Z,62.24
2018-08-03T05:44:22.097Z,62.34
2018-08-03T05:46:48.098Z,62.27
2018-08-03T05:49:14.118Z,62.29
2018-08-03T05:51:40.125Z,62.31
2018-08-03T05:54:06.165Z,62.22
2018-08-03T05:56:32.182Z,62.18
2018-08-03T05:58:58.209Z,62.33
2018-08-03T06:01:24.221Z,62.27
2018-08-03T06:03:50.267Z,62.26
2018-08-03T06:06:16.278Z,62.30
2018-08-03T06:08:42.288Z,62.23
2018-08-03T06:11:08.325Z,62.29
2018-08-03T06:13:34.304Z,62.21
2018-08-03T06:16:00.310Z,62.09
2018-08-03T06:18:26.322Z,62.11
2018-08-03T06:20:52.394Z,62.03
2018-08-03T06:23:18.402Z,61.81
2018-08-03T06:25:44.534Z,62.05
2018-08-03T06:28:10.582Z,61.89
2018-08-03T06:30:36.586Z,61.75
2018-08-03T06:33:02.590Z,61.84
2018-08-03T06:35:28.602Z,61.58
2018-08-03T06:37:54.617Z,61.29
2018-08-03T06:40:20.623Z,61.37
2018-08-03T06:42:46.636Z,61.52
2018-08-03T06:45:12.640Z,61.33
2018-08-03T06:47:38.648Z,61.28
2018-08-03T06:50:04.666Z,61.42
2018-08-03T06:52:30.670Z,61.53
2018-08-03T06:54:56.689Z,61.57
2018-08-03T06:57:22.760Z,61.55
2018-08-03T06:59:48.717Z,61.52
2018-08-03T07:02:14.737Z,61.47
2018-08-03T07:04:40.754Z,61.41
2018-08-03T07:07:06.766Z,61.33
2018-08-03T07:09:32.782Z,60.56
2018-08-03T07:11:58.796Z,60.53
2018-08-03T07:14:24.856Z,60.13
2018-08-03T07:16:50.865Z,59.95
2018-08-03T07:19:16.883Z,60.53
2018-08-03T07:21:42.913Z,60.61
2018-08-03T07:24:08.930Z,60.63
2018-08-03T07:26:34.948Z,60.40
2018-08-03T07:29:00.966Z,60.15
2018-08-03T07:31:26.983Z,60.58
2018-08-03T07:33:52.981Z,60.20
2018-08-03T07:36:19.007Z,60.20
2018-08-03T07:38:45.010Z,60.00
2018-08-03T07:41:11.018Z,59.88
2018-08-03T07:43:37.394Z,60.00
2018-08-03T07:46:03.296Z,59.82
2018-08-03T07:48:29.319Z,59.89
2018-08-03T07:50:55.331Z,60.05
2018-08-03T07:53:21.338Z,59.98
2018-08-03T07:55:47.356Z,59.89
2018-08-03T07:58:13.424Z,59.81
2018-08-03T08:00:39.429Z,59.64
2018-08-03T08:03:05.444Z,59.31
2018-08-03T08:05:31.486Z,59.29
2018-08-03T08:07:57.495Z,58.91
2018-08-03T08:10:23.501Z,58.66
2018-08-03T08:12:49.545Z,58.46
2018-08-03T08:15:15.526Z,58.32
2018-08-03T08:17:41.528Z,58.11
2018-08-03T08:20:07.546Z,58.00
2018-08-03T08:22:33.550Z,58.03
2018-08-03T08:24:59.571Z,57.95
2018-08-03T08:27:25.587Z,58.36
2018-08-03T08:29:51.635Z,59.15
2018-08-03T08:32:17.631Z,59.29
2018-08-03T08:34:43.677Z,59.18
2018-08-03T08:37:09.729Z,59.10
2018-08-03T08:39:35.732Z,59.11
2018-08-03T08:42:01.770Z,58.51
2018-08-03T08:44:27.808Z,58.83
2018-08-03T08:46:53.800Z,58.48
2018-08-03T08:49:19.828Z,58.60
2018-08-03T08:51:45.822Z,58.57
2018-08-03T08:54:11.835Z,58.32
2018-08-03T08:56:37.849Z,58.25
2018-08-03T08:59:03.859Z,58.03
2018-08-03T09:01:29.861Z,57.86
2018-08-03T09:03:55.869Z,58.32
2018-08-03T09:06:21.880Z,58.28
2018-08-03T09:08:47.894Z,58.01
2018-08-03T09:11:13.892Z,58.16
2018-08-03T09:13:39.914Z,57.99
2018-08-03T09:16:05.929Z,58.00
2018-08-03T09:18:31.958Z,57.96
2018-08-03T09:20:57.942Z,58.13
2018-08-03T09:23:23.953Z,57.54
2018-08-03T09:25:49.968Z,57.77
2018-08-03T09:28:15.975Z,57.76
2018-08-03T09:30:42.018Z,57.85
2018-08-03T09:33:08.025Z,57.81
2018-08-03T09:35:34.035Z,57.66
2018-08-03T09:38:00.074Z,57.69
2018-08-03T09:40:26.077Z,57.37
2018-08-03T09:42:52.092Z,57.49
2018-08-03T09:45:18.089Z,57.33
2018-08-03T09:47:44.092Z,57.17
2018-08-03T09:50:10.110Z,57.10
2018-08-03T09:52:36.122Z,57.05
2018-08-03T09:55:02.169Z,56.93
2018-08-03T09:57:28.181Z,56.77
2018-08-03T09:59:54.198Z,56.49
2018-08-03T10:02:20.211Z,55.98
2018-08-03T10:04:46.222Z,55.78
2018-08-03T10:07:12.244Z,55.77
2018-08-03T10:09:38.262Z,55.79
2018-08-03T10:12:04.264Z,55.88
2018-08-03T10:14:30.299Z,56.16
2018-08-03T10:16:56.319Z,56.00
2018-08-03T10:19:22.332Z,56.06
2018-08-03T10:21:48.394Z,56.32
2018-08-03T10:24:14.390Z,56.46
2018-08-03T10:26:40.392Z,56.49
2018-08-03T10:29:06.403Z,56.42
2018-08-03T10:31:32.414Z,56.48
2018-08-03T10:33:58.426Z,56.34
2018-08-03T10:36:24.535Z,56.47
2018-08-03T10:38:50.539Z,56.23
2018-08-03T10:41:16.553Z,56.15
2018-08-03T10:43:42.569Z,56.33
2018-08-03T10:46:08.764Z,56.45
2018-08-03T10:48:34.817Z,56.29
2018-08-03T10:51:00.792Z,56.46
2018-08-03T10:53:26.803Z,55.94
2018-08-03T10:55:52.813Z,55.86
2018-08-03T10:58:18.859Z,56.07
2018-08-03T11:00:44.867Z,56.68
2018-08-03T11:03:10.871Z,56.40
2018-08-03T11:05:36.875Z,56.55
2018-08-03T11:08:02.885Z,56.38
2018-08-03T11:10:28.894Z,56.26
2018-08-03T11:12:54.906Z,56.43
2018-08-03T11:15:20.916Z,56.28
2018-08-03T11:17:46.926Z,56.07
2018-08-03T11:20:12.937Z,56.01
2018-08-03T11:22:38.952Z,56.38
2018-08-03T11:25:04.969Z,56.16
2018-08-03T11:27:30.978Z,56.35
2018-08-03T11:29:56.989Z,56.50
2018-08-03T11:32:22.996Z,56.46
2018-08-03T11:34:49.006Z,55.91
2018-08-03T11:37:15.030Z,56.02
2018-08-03T11:39:41.038Z,56.24
2018-08-03T11:42:07.045Z,56.54
2018-08-03T11:44:33.081Z,56.33
2018-08-03T11:46:59.099Z,56.40
2018-08-03T11:49:25.104Z,55.95
2018-08-03T11:51:51.151Z,56.05
2018-08-03T11:54:17.153Z,55.92
2018-08-03T11:56:43.152Z,56.29
2018-08-03T11:59:09.168Z,56.21
2018-08-03T12:01:35.174Z,56.02
2018-08-03T12:04:01.188Z,56.16
2018-08-03T12:06:27.195Z,56.24
2018-08-03T12:08:53.260Z,56.24
2018-08-03T12:11:19.272Z,56.32
2018-08-03T12:13:45.272Z,56.27
2018-08-03T12:16:11.279Z,55.95
2018-08-03T12:18:37.291Z,56.48
2018-08-03T12:21:03.301Z,56.77
2018-08-03T12:23:29.329Z,56.10
2018-08-03T12:25:55.357Z,56.21
2018-08-03T12:28:21.363Z,55.99
2018-08-03T12:30:47.373Z,56.42
2018-08-03T12:33:13.395Z,56.19
2018-08-03T12:35:39.407Z,56.18
2018-08-03T12:38:05.414Z,56.43
2018-08-03T12:40:31.420Z,56.52
2018-08-03T12:42:57.426Z,56.52
2018-08-03T12:45:23.443Z,55.81
2018-08-03T12:47:49.458Z,55.64
2018-08-03T12:50:15.578Z,55.42
2018-08-03T12:52:41.652Z,55.96
2018-08-03T12:55:07.603Z,56.02
2018-08-03T13:07:54.303Z,55.75
2018-08-03T13:10:20.203Z,55.75
2018-08-03T13:12:46.207Z,55.83
2018-08-03T13:15:12.211Z,55.99
2018-08-03T13:17:38.223Z,56.12
2018-08-03T13:20:04.237Z,56.20
2018-08-03T13:22:30.266Z,56.39
2018-08-03T13:24:56.283Z,56.49
2018-08-03T13:27:22.328Z,56.48
2018-08-03T13:29:48.427Z,56.74
2018-08-03T13:32:14.452Z,56.56
2018-08-03T13:34:40.469Z,56.71
2018-08-03T13:37:06.486Z,56.63
2018-08-03T13:39:32.493Z,56.66
2018-08-03T13:41:58.508Z,56.54
2018-08-03T13:44:24.562Z,56.39
2018-08-03T13:46:50.569Z,56.30
2018-08-03T13:49:16.576Z,56.22
2018-08-03T13:51:42.583Z,56.11
2018-08-03T13:54:08.608Z,56.08
2018-08-03T13:56:34.622Z,56.13
2018-08-03T13:59:00.640Z,56.15
2018-08-03T14:01:26.666Z,55.86
2018-08-03T14:03:52.692Z,55.91
2018-08-03T14:06:18.677Z,55.67
2018-08-03T14:08:44.700Z,55.67
2018-08-03T14:11:10.762Z,55.74
2018-08-03T14:13:36.775Z,55.86
2018-08-03T14:16:02.792Z,55.73
2018-08-03T14:18:28.800Z,55.71
2018-08-03T14:20:54.805Z,55.89
2018-08-03T14:23:20.827Z,56.01
2018-08-03T14:25:46.839Z,57.53
2018-08-03T14:28:12.852Z,57.78
2018-08-03T14:30:38.886Z,57.75
2018-08-03T14:33:04.896Z,57.70
2018-08-03T14:35:30.921Z,57.57
2018-08-03T14:37:56.932Z,57.33
2018-08-03T14:40:22.943Z,57.38
2018-08-03T14:42:49.234Z,57.20
2018-08-03T14:45:15.251Z,57.34
2018-08-03T14:47:41.307Z,57.21
2018-08-03T14:50:07.359Z,57.61
2018-08-03T14:52:33.330Z,57.78
2018-08-03T14:54:59.360Z,57.74
2018-08-03T14:57:25.391Z,57.69
2018-08-03T14:59:51.398Z,57.57
2018-08-03T15:02:17.428Z,57.57
2018-08-03T15:04:43.446Z,57.67
2018-08-03T15:07:09.513Z,57.46
2018-08-03T15:09:35.543Z,57.63
2018-08-03T15:12:01.551Z,57.38
2018-08-03T15:14:27.564Z,57.43
2018-08-03T15:16:53.592Z,57.49
2018-08-03T15:19:19.633Z,57.52
2018-08-03T15:21:45.651Z,57.50
2018-08-03T15:24:11.689Z,57.58
2018-08-03T15:26:37.845Z,57.59
2018-08-03T15:29:03.927Z,57.67
2018-08-03T15:31:29.899Z,57.53
2018-08-03T15:33:55.929Z,57.58
2018-08-03T15:36:21.958Z,57.11
2018-08-03T15:38:47.976Z,56.97
2018-08-03T15:41:14.047Z,56.75
2018-08-03T15:43:40.080Z,57.02
2018-08-03T15:46:06.134Z,56.70
2018-08-03T15:48:32.187Z,56.78
2018-08-03T15:50:58.210Z,56.40
2018-08-03T15:53:24.891Z,56.58
2018-08-03T15:58:17.171Z,56.43
2018-08-03T16:00:43.398Z,56.40
2018-08-03T16:03:09.445Z,56.61
2018-08-03T16:05:35.514Z,56.42
2018-08-03T16:08:01.493Z,56.54
2018-08-03T16:10:27.548Z,56.93
2018-08-03T16:12:53.602Z,56.98
2018-08-03T16:15:19.560Z,57.08
2018-08-03T16:17:45.661Z,57.20
2018-08-03T16:20:11.664Z,57.29
2018-08-03T16:22:37.694Z,57.45
2018-08-03T16:25:03.891Z,57.52
2018-08-03T16:27:29.928Z,57.46
2018-08-03T16:29:56.096Z,57.54
2018-08-03T16:32:22.113Z,57.34
2018-08-03T16:34:48.122Z,56.98
2018-08-03T16:37:14.132Z,56.89
2018-08-03T16:39:40.198Z,56.78
2018-08-03T16:42:06.237Z,56.58
2018-08-03T16:44:32.251Z,56.55
2018-08-03T16:46:58.258Z,56.67
2018-08-03T16:49:24.265Z,56.46
2018-08-03T16:51:50.274Z,56.58
2018-08-03T16:54:16.284Z,56.46
2018-08-03T16:56:42.346Z,56.22
2018-08-03T16:59:08.351Z,56.36
2018-08-03T17:01:34.380Z,56.38
2018-08-03T17:04:00.431Z,56.36
2018-08-03T17:06:26.437Z,56.03
2018-08-03T17:08:52.449Z,56.07
2018-08-03T17:11:18.461Z,56.16
2018-08-03T17:13:44.472Z,56.23
2018-08-03T17:16:10.498Z,56.25
2018-08-03T17:18:36.508Z,55.99
2018-08-03T17:21:02.537Z,56.27
2018-08-03T17:23:28.554Z,55.74
2018-08-03T17:25:54.562Z,55.48
2018-08-03T17:28:20.573Z,55.20
2018-08-03T17:30:46.577Z,55.68
2018-08-03T17:33:12.601Z,56.01
2018-08-03T17:35:38.611Z,55.99
2018-08-03T17:38:04.616Z,55.52
2018-08-03T17:40:30.632Z,55.46
2018-08-03T17:42:56.784Z,55.86
2018-08-03T17:45:22.688Z,55.86
2018-08-03T17:47:48.922Z,56.15
2018-08-03T17:50:14.930Z,55.95
2018-08-03T17:52:40.955Z,56.45
2018-08-03T17:55:06.966Z,55.51
2018-08-03T17:57:33.000Z,54.91
2018-08-03T17:59:59.009Z,54.72
2018-08-03T18:02:25.020Z,55.75
2018-08-03T18:04:51.031Z,54.99
2018-08-03T18:07:17.049Z,55.17
2018-08-03T18:09:43.070Z,55.12
2018-08-03T18:12:09.104Z,54.71
2018-08-03T18:14:35.176Z,55.04
2018-08-03T18:17:01.181Z,55.22
2018-08-03T18:19:27.193Z,56.15
2018-08-03T18:21:53.231Z,55.42
2018-08-03T18:24:19.243Z,55.44
2018-08-03T18:26:45.274Z,55.85
2018-08-03T18:29:11.388Z,55.48
2018-08-03T18:31:37.493Z,55.49
2018-08-03T18:34:03.513Z,55.76
2018-08-03T18:36:29.525Z,56.23
2018-08-03T18:38:55.561Z,55.95
2018-08-03T18:41:21.584Z,56.02
2018-08-03T18:43:47.600Z,56.00
2018-08-03T18:46:13.662Z,55.91
2018-08-03T18:48:39.636Z,56.18
2018-08-03T18:51:05.685Z,55.93
2018-08-03T18:53:31.713Z,56.22
2018-08-03T18:55:57.715Z,55.98
2018-08-03T18:58:24.010Z,56.18
2018-08-03T19:00:50.025Z,55.86
2018-08-03T19:03:16.039Z,56.41
2018-08-03T19:05:42.092Z,56.69
2018-08-03T19:08:11.295Z,56.53
2018-08-03T19:10:37.479Z,56.65
2018-08-03T19:13:03.523Z,56.37
2018-08-03T19:15:29.579Z,56.35
2018-08-03T19:17:55.595Z,56.64
2018-08-03T19:20:21.606Z,56.95
2018-08-03T19:22:47.616Z,56.92
2018-08-03T19:25:13.644Z,57.06
2018-08-03T19:27:39.662Z,57.02
2018-08-03T19:30:05.729Z,57.22
2018-08-03T19:32:31.749Z,57.31
2018-08-03T19:34:57.756Z,57.43
2018-08-03T19:37:23.768Z,57.24
2018-08-03T19:39:49.799Z,57.50
2018-08-03T19:42:15.822Z,57.26
2018-08-03T19:44:41.829Z,57.51
2018-08-03T19:47:07.891Z,57.35
2018-08-03T19:49:33.854Z,57.39
2018-08-03T19:51:59.862Z,57.44
2018-08-03T19:54:25.861Z,57.47
2018-08-03T19:56:51.869Z,57.55
2018-08-03T19:59:17.914Z,57.36
2018-08-03T20:01:43.886Z,57.38
2018-08-03T20:04:09.893Z,57.63
2018-08-03T20:06:35.893Z,57.63
2018-08-03T20:09:01.902Z,57.59
2018-08-03T20:11:27.909Z,57.53
2018-08-03T20:13:53.948Z,57.67
2018-08-03T20:16:19.961Z,57.70
2018-08-03T20:18:45.971Z,57.55
2018-08-03T20:21:11.973Z,57.37
2018-08-03T20:23:38.002Z,57.42
2018-08-03T20:26:03.987Z,57.39
2018-08-03T20:28:29.997Z,57.43
2018-08-03T20:30:55.996Z,57.34
2018-08-03T20:33:22.015Z,57.43
2018-08-03T20:35:48.024Z,57.42
2018-08-03T20:38:14.029Z,57.43
2018-08-03T20:40:40.040Z,57.53
2018-08-03T20:43:06.051Z,57.49
2018-08-03T20:45:32.061Z,57.65
2018-08-03T20:47:58.072Z,57.65
2018-08-03T20:50:24.084Z,57.87
2018-08-03T20:52:50.097Z,57.77
2018-08-03T20:55:16.116Z,57.85
2018-08-03T20:57:42.113Z,57.73
2018-08-03T21:00:08.118Z,57.88
2018-08-03T21:02:34.130Z,57.94
2018-08-03T21:05:00.169Z,58.03
2018-08-03T21:07:26.152Z,58.02
2018-08-03T21:09:52.194Z,58.12
2018-08-03T21:12:18.203Z,58.17
2018-08-03T21:14:44.204Z,58.22
2018-08-03T21:17:10.213Z,58.23
2018-08-03T21:19:36.229Z,58.28
2018-08-03T21:22:02.244Z,58.31
2018-08-03T21:24:28.250Z,58.33
2018-08-03T21:26:54.257Z,58.36
2018-08-03T21:29:20.270Z,58.39
2018-08-03T21:31:46.284Z,58.45
2018-08-03T21:34:12.291Z,58.43
2018-08-03T21:36:38.306Z,58.38
2018-08-03T21:39:04.308Z,58.42
2018-08-03T21:41:30.319Z,58.45
2018-08-03T21:43:56.355Z,58.44
2018-08-03T21:46:22.383Z,58.47
2018-08-03T21:48:48.360Z,58.47
2018-08-03T21:51:14.362Z,58.48
2018-08-03T21:53:40.374Z,58.52
2018-08-03T21:56:06.388Z,58.52
2018-08-03T21:58:32.399Z,58.52
2018-08-03T22:00:58.405Z,58.51
2018-08-03T22:03:24.416Z,58.51
2018-08-03T22:05:50.448Z,58.53
2018-08-03T22:08:16.448Z,58.51
2018-08-03T22:10:42.519Z,58.50
2018-08-03T22:13:08.521Z,58.50
2018-08-03T22:15:34.558Z,58.50
2018-08-03T22:18:00.595Z,58.50
2018-08-03T22:20:26.600Z,58.51
2018-08-03T22:22:52.627Z,58.53
2018-08-03T22:25:18.637Z,58.51
2018-08-03T22:27:44.672Z,58.53
2018-08-03T22:32:36.729Z,58.52
2018-08-03T22:35:02.695Z,58.53
2018-08-03T22:37:28.704Z,58.52
2018-08-03T22:39:54.713Z,58.55
2018-08-03T22:42:20.724Z,58.55
2018-08-03T22:44:46.736Z,58.51
2018-08-03T22:47:12.740Z,58.51
2018-08-03T22:49:38.780Z,58.53
2018-08-03T22:52:04.755Z,58.49
2018-08-03T22:54:30.765Z,58.47
2018-08-03T22:56:56.769Z,58.51
2018-08-03T22:59:22.776Z,58.53
2018-08-03T23:01:48.780Z,58.52
2018-08-03T23:04:14.794Z,58.49
2018-08-03T23:06:40.806Z,58.46
2018-08-03T23:09:06.820Z,58.47
2018-08-03T23:11:32.825Z,58.48
2018-08-03T23:13:58.847Z,58.47
2018-08-03T23:16:24.838Z,58.44
2018-08-03T23:18:50.847Z,58.45
2018-08-03T23:21:16.859Z,58.45
2018-08-03T23:23:42.870Z,58.42
2018-08-03T23:26:08.876Z,58.45
2018-08-03T23:28:34.880Z,58.43
2018-08-03T23:31:00.895Z,58.44
2018-08-03T23:33:26.932Z,58.41
2018-08-03T23:35:52.941Z,58.42
2018-08-03T23:38:18.975Z,58.45
2018-08-03T23:40:44.978Z,58.44
2018-08-03T23:43:10.992Z,58.42
2018-08-03T23:45:37.002Z,58.41
2018-08-03T23:48:03.014Z,58.40
2018-08-03T23:50:29.015Z,58.42
2018-08-03T23:52:55.026Z,58.42
2018-08-03T23:55:21.036Z,58.45
2018-08-03T23:57:47.048Z,58.40
